Time;durP1;ratioP1;P1;durP2;ratioP2;P2;SDS_P1;SDS_P2;PMS_P1;PMS_P2;Temp;Humidity;BMP_temperature;BMP_pressure;BME280_temperature;BME280_humidity;BME280_pressure;Samples;Min_cycle;Max_cycle;Signal;HPM_P1;HPM_P2
2021/10/14 00:00:54;;;;;;;4.47;4.07;;;5.10;99.90;;;;;;6180531;23;20405;-87
2021/10/14 00:03:20;;;;;;;4.23;3.93;;;5.20;99.90;;;;;;6181694;23;20504;-86
2021/10/14 00:05:46;;;;;;;3.73;3.43;;;5.10;99.90;;;;;;6181357;23;20391;-86
2021/10/14 00:08:12;;;;;;;6.00;3.77;;;5.10;99.90;;;;;;6180482;23;20443;-87
2021/10/14 00:10:37;;;;;;;7.93;3.57;;;5.00;99.90;;;;;;6181553;23;20255;-86
2021/10/14 00:13:03;;;;;;;4.60;4.17;;;5.00;99.90;;;;;;6181441;23;20881;-87
2021/10/14 00:15:29;;;;;;;4.37;3.97;;;5.00;99.90;;;;;;6180771;23;20249;-87
2021/10/14 00:17:55;;;;;;;4.10;3.70;;;5.00;99.90;;;;;;6179915;23;20194;-87
2021/10/14 00:20:21;;;;;;;4.30;3.90;;;5.00;99.90;;;;;;6204815;23;20418;-86
2021/10/14 00:22:46;;;;;;;3.90;3.60;;;4.90;99.90;;;;;;6182422;23;20210;-87
2021/10/14 00:25:12;;;;;;;4.20;3.80;;;4.90;99.90;;;;;;6205374;23;20396;-87
2021/10/14 00:27:38;;;;;;;3.80;3.43;;;4.80;99.90;;;;;;6181124;23;20257;-87
2021/10/14 00:30:04;;;;;;;5.20;4.63;;;4.80;99.90;;;;;;6181767;23;20174;-87
2021/10/14 00:32:30;;;;;;;5.20;4.70;;;4.80;99.90;;;;;;6180143;23;20161;-87
2021/10/14 00:34:56;;;;;;;4.57;4.13;;;4.80;99.90;;;;;;6180236;23;20392;-87
2021/10/14 00:37:22;;;;;;;4.50;4.10;;;4.80;99.90;;;;;;6208436;23;20220;-87
2021/10/14 00:39:47;;;;;;;4.33;3.93;;;4.70;99.90;;;;;;6179581;23;20404;-87
2021/10/14 00:42:13;;;;;;;4.53;4.17;;;4.60;99.90;;;;;;6180454;23;20228;-88
2021/10/14 00:44:58;;;;;;;4.53;4.13;;;4.60;99.90;;;;;;6181372;23;20550;-88
2021/10/14 00:47:28;;;;;;;4.57;4.17;;;4.60;99.90;;;;;;6181279;23;20174;-87
2021/10/14 00:49:55;;;;;;;5.20;4.60;;;4.50;99.90;;;;;;6180564;23;20394;-88
2021/10/14 00:52:22;;;;;;;5.23;4.27;;;4.60;99.90;;;;;;6181053;23;20406;-87
2021/10/14 00:54:52;;;;;;;4.83;4.33;;;4.60;99.90;;;;;;6181015;23;20426;-88
2021/10/14 00:57:19;;;;;;;4.73;4.33;;;4.70;99.90;;;;;;6178898;23;20822;-87
2021/10/14 00:59:45;;;;;;;5.40;4.83;;;4.70;99.90;;;;;;6180261;23;20485;-87
2021/10/14 01:02:11;;;;;;;5.10;4.60;;;4.60;99.90;;;;;;6181170;23;20471;-87
2021/10/14 01:04:37;;;;;;;4.60;4.20;;;4.50;99.90;;;;;;6179844;23;20389;-87
2021/10/14 01:07:04;;;;;;;4.70;4.13;;;4.50;99.90;;;;;;6180562;23;20173;-88
2021/10/14 01:09:30;;;;;;;5.20;4.70;;;4.60;99.90;;;;;;6181954;23;20166;-88
2021/10/14 01:12:01;;;;;;;4.30;3.90;;;4.70;99.90;;;;;;6180483;23;20481;-89
2021/10/14 01:14:26;;;;;;;4.37;3.97;;;4.60;99.90;;;;;;6181203;23;20720;-88
2021/10/14 01:16:52;;;;;;;4.67;4.10;;;4.50;99.90;;;;;;6181811;23;20433;-88
2021/10/14 01:19:18;;;;;;;5.13;4.10;;;4.50;99.90;;;;;;6180383;23;20607;-89
2021/10/14 01:21:44;;;;;;;4.83;4.43;;;4.60;99.90;;;;;;6179606;23;20236;-88
2021/10/14 01:24:10;;;;;;;4.97;4.33;;;4.50;99.90;;;;;;6190210;23;20408;-87
2021/10/14 01:26:38;;;;;;;7.10;4.40;;;4.50;99.90;;;;;;6213711;23;20205;-87
2021/10/14 01:29:04;;;;;;;5.13;4.63;;;4.60;99.90;;;;;;6180165;23;20594;-87
2021/10/14 01:31:30;;;;;;;4.70;4.20;;;4.60;99.90;;;;;;6180378;23;20392;-87
2021/10/14 01:33:56;;;;;;;6.33;4.47;;;4.60;99.90;;;;;;6180670;23;20157;-87
2021/10/14 01:36:22;;;;;;;5.80;5.20;;;4.60;99.90;;;;;;6179103;23;20396;-87
2021/10/14 01:38:48;;;;;;;7.97;5.57;;;4.70;99.90;;;;;;6179827;23;20427;-88
2021/10/14 01:41:14;;;;;;;6.67;5.93;;;4.60;99.90;;;;;;6179473;23;20406;-88
2021/10/14 01:43:40;;;;;;;9.83;6.60;;;4.60;99.90;;;;;;6181288;23;20788;-87
2021/10/14 01:46:06;;;;;;;9.43;6.00;;;4.60;99.90;;;;;;6180109;23;20167;-87
2021/10/14 01:48:32;;;;;;;7.43;5.93;;;4.50;99.90;;;;;;6180693;23;20581;-88
2021/10/14 01:50:58;;;;;;;5.80;5.30;;;4.50;99.90;;;;;;6177244;23;20396;-87
2021/10/14 01:53:25;;;;;;;6.30;5.20;;;4.60;99.90;;;;;;6179447;23;20498;-87
2021/10/14 01:55:51;;;;;;;6.27;5.63;;;4.50;99.90;;;;;;6178695;23;20409;-87
2021/10/14 01:58:18;;;;;;;5.70;5.20;;;4.40;99.90;;;;;;6179432;23;20440;-87
2021/10/14 02:00:45;;;;;;;6.33;5.83;;;4.40;99.90;;;;;;6179581;23;20888;-88
2021/10/14 02:03:10;;;;;;;6.20;5.60;;;4.40;99.90;;;;;;6181044;23;20773;-87
2021/10/14 02:05:36;;;;;;;5.97;5.50;;;4.40;99.90;;;;;;6177985;23;20523;-87
2021/10/14 02:08:02;;;;;;;4.93;4.53;;;4.30;99.90;;;;;;6179654;23;20176;-88
2021/10/14 02:10:28;;;;;;;6.73;6.10;;;4.30;99.90;;;;;;6181421;23;20535;-87
2021/10/14 02:12:54;;;;;;;5.30;4.90;;;4.30;99.90;;;;;;6178674;23;20470;-87
2021/10/14 02:15:19;;;;;;;5.70;5.10;;;4.40;99.90;;;;;;6178567;23;20616;-87
2021/10/14 02:17:45;;;;;;;5.83;5.33;;;4.40;99.90;;;;;;6180301;23;20196;-87
2021/10/14 02:20:11;;;;;;;5.53;5.03;;;4.30;99.90;;;;;;6178433;23;20161;-86
2021/10/14 02:22:37;;;;;;;5.57;5.07;;;4.30;99.90;;;;;;6180167;23;20194;-87
2021/10/14 02:25:04;;;;;;;5.27;4.73;;;4.30;99.90;;;;;;6179889;23;20471;-87
2021/10/14 02:27:30;;;;;;;5.20;4.80;;;4.20;99.90;;;;;;6179806;23;20464;-86
2021/10/14 02:29:56;;;;;;;5.20;4.60;;;4.10;99.90;;;;;;6180114;23;20403;-86
2021/10/14 02:32:21;;;;;;;6.03;4.93;;;4.00;99.90;;;;;;6180113;23;20293;-86
2021/10/14 02:34:57;;;;;;;5.70;5.10;;;4.00;99.90;;;;;;6179425;23;20605;-86
2021/10/14 02:37:26;;;;;;;7.60;4.50;;;4.00;99.90;;;;;;6180412;23;20719;-86
2021/10/14 02:39:53;;;;;;;7.07;4.90;;;3.90;99.90;;;;;;6180138;23;20411;-86
2021/10/14 02:42:19;;;;;;;5.00;4.60;;;3.90;99.90;;;;;;6179389;23;20406;-86
2021/10/14 02:44:45;;;;;;;6.20;5.10;;;3.90;99.90;;;;;;6179899;23;20395;-86
2021/10/14 02:47:11;;;;;;;6.30;5.40;;;3.80;99.90;;;;;;6180494;23;20168;-86
2021/10/14 02:49:36;;;;;;;9.10;5.60;;;3.90;99.90;;;;;;6178308;23;20160;-86
2021/10/14 02:52:03;;;;;;;8.10;4.90;;;3.80;99.90;;;;;;6178701;23;20403;-85
2021/10/14 02:54:28;;;;;;;32.63;6.50;;;3.70;99.90;;;;;;6191605;23;20162;-86
2021/10/14 02:56:54;;;;;;;5.50;5.00;;;3.60;99.90;;;;;;6185285;23;20467;-85
2021/10/14 02:59:20;;;;;;;7.97;4.60;;;3.70;99.90;;;;;;6178698;23;20163;-85
2021/10/14 03:01:45;;;;;;;19.00;6.20;;;3.70;99.90;;;;;;6178512;23;20189;-86
2021/10/14 03:04:11;;;;;;;9.13;5.40;;;3.70;99.90;;;;;;6178531;23;20677;-85
2021/10/14 03:06:37;;;;;;;12.07;4.67;;;3.70;99.90;;;;;;6180385;23;20513;-86
2021/10/14 03:09:03;;;;;;;10.43;4.60;;;3.70;99.90;;;;;;6179520;23;20167;-86
2021/10/14 03:11:29;;;;;;;8.40;4.90;;;3.70;99.90;;;;;;6177840;23;20489;-86
2021/10/14 03:13:55;;;;;;;6.67;5.47;;;3.60;99.90;;;;;;6179653;23;20562;-86
2021/10/14 03:16:21;;;;;;;5.87;5.23;;;3.60;99.90;;;;;;6178392;23;20876;-86
2021/10/14 03:18:48;;;;;;;7.10;5.60;;;3.60;99.90;;;;;;6179444;23;20501;-86
2021/10/14 03:21:15;;;;;;;4.73;4.37;;;3.60;99.90;;;;;;6179571;23;20387;-86
2021/10/14 03:23:40;;;;;;;5.53;5.00;;;3.70;99.90;;;;;;6203548;23;20774;-86
2021/10/14 03:26:06;;;;;;;5.43;4.90;;;3.60;99.90;;;;;;6178950;23;20442;-86
2021/10/14 03:28:32;;;;;;;5.23;4.77;;;3.50;99.90;;;;;;6180106;23;20243;-86
2021/10/14 03:30:57;;;;;;;4.87;4.43;;;3.60;99.90;;;;;;6180716;23;20593;-86
2021/10/14 03:33:23;;;;;;;4.80;4.40;;;3.70;99.90;;;;;;6179511;23;20618;-87
2021/10/14 03:35:49;;;;;;;5.63;5.13;;;3.70;99.90;;;;;;6181356;23;20506;-86
2021/10/14 03:38:15;;;;;;;5.17;4.67;;;3.80;99.90;;;;;;6182156;23;20439;-86
2021/10/14 03:40:40;;;;;;;4.90;4.50;;;3.80;99.90;;;;;;6182481;23;20167;-87
2021/10/14 03:43:06;;;;;;;5.80;5.20;;;3.80;99.90;;;;;;6181277;23;20162;-87
2021/10/14 03:45:32;;;;;;;5.80;4.90;;;3.80;99.90;;;;;;6181178;23;20163;-87
2021/10/14 03:47:58;;;;;;;5.03;4.53;;;3.80;99.90;;;;;;6182474;23;20399;-87
2021/10/14 03:50:23;;;;;;;6.63;4.70;;;3.80;99.90;;;;;;6181283;23;20254;-87
2021/10/14 03:52:49;;;;;;;4.40;4.00;;;3.90;99.90;;;;;;6181434;23;20176;-86
2021/10/14 03:55:15;;;;;;;6.53;5.10;;;3.80;99.90;;;;;;6182172;23;20171;-86
2021/10/14 03:57:40;;;;;;;5.00;4.43;;;3.80;99.90;;;;;;6181029;23;20199;-86
2021/10/14 04:00:07;;;;;;;4.93;4.47;;;3.70;99.90;;;;;;6181039;23;20176;-87
2021/10/14 04:02:33;;;;;;;6.03;4.70;;;3.70;99.90;;;;;;6177947;23;20186;-87
2021/10/14 04:04:59;;;;;;;10.17;5.07;;;3.50;99.90;;;;;;6180089;23;20549;-85
2021/10/14 04:07:25;;;;;;;14.10;5.73;;;3.50;99.90;;;;;;6178414;23;20600;-85
2021/10/14 04:09:50;;;;;;;9.20;5.23;;;3.50;99.90;;;;;;6178239;23;20160;-85
2021/10/14 04:12:16;;;;;;;11.40;5.07;;;3.40;99.90;;;;;;6180548;23;20168;-86
2021/10/14 04:14:42;;;;;;;7.13;5.30;;;3.40;99.90;;;;;;6177753;23;20648;-86
2021/10/14 04:17:07;;;;;;;6.80;5.23;;;3.50;99.90;;;;;;6179627;23;20200;-86
2021/10/14 04:19:33;;;;;;;5.67;5.00;;;3.30;99.90;;;;;;6179003;23;20445;-86
2021/10/14 04:21:59;;;;;;;6.13;4.90;;;3.30;99.90;;;;;;6180697;23;20159;-86
2021/10/14 04:24:27;;;;;;;8.80;5.20;;;3.30;99.90;;;;;;6194706;23;20174;-87
2021/10/14 04:26:53;;;;;;;6.10;5.03;;;3.30;99.90;;;;;;6188542;23;20163;-89
2021/10/14 04:29:18;;;;;;;8.37;5.27;;;3.30;99.90;;;;;;6178852;23;20478;-89
2021/10/14 04:31:57;;;;;;;5.53;4.77;;;3.30;99.90;;;;;;6179062;23;20873;-89
2021/10/14 04:34:23;;;;;;;5.60;5.10;;;3.50;99.90;;;;;;6180724;23;20165;-91
2021/10/14 04:36:49;;;;;;;5.60;5.00;;;3.60;99.90;;;;;;6178349;23;20529;-90
2021/10/14 04:39:15;;;;;;;9.50;5.17;;;3.60;99.90;;;;;;6179635;23;20163;-86
2021/10/14 04:41:41;;;;;;;6.40;5.87;;;3.60;99.90;;;;;;6179889;23;20217;-86
2021/10/14 04:44:07;;;;;;;6.00;5.50;;;3.50;99.90;;;;;;6181420;23;21016;-87
2021/10/14 04:46:33;;;;;;;7.10;6.40;;;3.60;99.90;;;;;;6180888;23;20167;-87
2021/10/14 04:48:59;;;;;;;8.07;6.50;;;3.60;99.90;;;;;;6182346;23;20161;-87
2021/10/14 04:51:24;;;;;;;7.50;6.70;;;3.50;99.90;;;;;;6206751;23;20164;-87
2021/10/14 04:53:50;;;;;;;7.23;5.83;;;3.50;99.90;;;;;;6181424;23;20398;-86
2021/10/14 04:56:16;;;;;;;6.97;6.27;;;3.60;99.90;;;;;;6182132;23;20171;-87
2021/10/14 04:58:41;;;;;;;12.47;6.30;;;3.60;99.90;;;;;;6182046;23;20214;-87
2021/10/14 05:01:07;;;;;;;21.87;6.23;;;3.60;99.90;;;;;;6182159;23;20226;-87
2021/10/14 05:03:32;;;;;;;18.20;8.07;;;3.60;99.90;;;;;;6180990;23;20175;-86
2021/10/14 05:05:58;;;;;;;20.87;7.57;;;3.60;99.90;;;;;;6181606;23;20585;-86
2021/10/14 05:08:24;;;;;;;13.63;7.10;;;3.70;99.90;;;;;;6181961;23;20498;-88
2021/10/14 05:10:49;;;;;;;19.17;7.37;;;3.60;99.90;;;;;;6181329;23;20242;-86
2021/10/14 05:13:15;;;;;;;14.97;6.47;;;3.60;99.90;;;;;;6181457;23;20167;-85
2021/10/14 05:15:41;;;;;;;15.10;6.60;;;3.70;99.90;;;;;;6181778;23;20175;-86
2021/10/14 05:18:07;;;;;;;26.17;7.73;;;3.80;99.90;;;;;;6181918;23;20526;-87
2021/10/14 05:20:33;;;;;;;23.83;7.47;;;3.80;99.90;;;;;;6181529;23;20387;-86
2021/10/14 05:22:59;;;;;;;9.47;7.10;;;3.80;99.90;;;;;;6181827;23;20726;-86
2021/10/14 05:25:25;;;;;;;9.10;7.50;;;3.80;99.90;;;;;;6181598;23;20390;-88
2021/10/14 05:27:53;;;;;;;7.70;7.00;;;3.90;99.90;;;;;;6177390;23;20410;-87
2021/10/14 05:30:20;;;;;;;8.17;7.10;;;4.00;99.90;;;;;;6182016;23;20388;-87
2021/10/14 05:32:45;;;;;;;61.40;50.43;;;4.00;99.90;;;;;;6181189;23;20727;-86
2021/10/14 05:35:11;;;;;;;37.70;30.97;;;4.10;99.90;;;;;;6180591;23;20394;-86
2021/10/14 05:37:37;;;;;;;8.60;7.10;;;4.10;99.90;;;;;;6182195;23;20199;-86
2021/10/14 05:40:10;;;;;;;8.03;6.30;;;4.20;99.90;;;;;;6182223;23;20486;-87
2021/10/14 05:42:35;;;;;;;7.03;6.33;;;4.20;99.90;;;;;;6181406;23;20251;-89
2021/10/14 05:45:01;;;;;;;6.70;6.10;;;4.10;99.90;;;;;;6182060;23;20414;-88
2021/10/14 05:47:27;;;;;;;8.63;6.83;;;4.20;99.90;;;;;;6182171;23;20246;-88
2021/10/14 05:49:53;;;;;;;7.90;5.70;;;4.10;99.90;;;;;;6181698;23;20230;-88
2021/10/14 05:52:20;;;;;;;6.17;5.57;;;4.20;99.90;;;;;;6210113;23;20383;-88
2021/10/14 05:54:46;;;;;;;7.90;6.80;;;4.20;99.90;;;;;;6199744;23;20160;-88
2021/10/14 05:57:11;;;;;;;11.33;9.17;;;4.20;99.90;;;;;;6181700;23;20449;-88
2021/10/14 05:59:43;;;;;;;8.80;7.47;;;4.30;99.90;;;;;;6182271;23;20156;-88
2021/10/14 06:02:08;;;;;;;7.40;6.60;;;4.30;99.90;;;;;;6181676;23;20454;-88
2021/10/14 06:05:06;;;;;;;7.57;6.27;;;4.30;99.90;;;;;;6181520;23;21690;-89
2021/10/14 06:07:31;;;;;;;9.43;8.43;;;4.40;99.90;;;;;;6178175;23;20191;-89
2021/10/14 06:09:57;;;;;;;9.67;8.83;;;4.30;99.90;;;;;;6179221;23;20403;-87
2021/10/14 06:12:23;;;;;;;13.23;9.10;;;4.30;99.90;;;;;;6181210;23;20668;-89
2021/10/14 06:14:48;;;;;;;11.57;7.93;;;4.30;99.90;;;;;;6179904;23;20246;-88
2021/10/14 06:17:14;;;;;;;9.13;7.40;;;4.30;99.90;;;;;;6181498;23;20666;-88
2021/10/14 06:19:40;;;;;;;7.03;6.10;;;4.40;99.90;;;;;;6179950;23;20163;-89
2021/10/14 06:22:05;;;;;;;8.50;6.97;;;4.40;99.90;;;;;;6180875;23;20499;-88
2021/10/14 06:24:31;;;;;;;7.57;6.87;;;4.50;99.90;;;;;;6180609;23;20160;-88
2021/10/14 06:26:57;;;;;;;8.37;6.03;;;4.50;99.90;;;;;;6178908;23;20282;-88
2021/10/14 06:29:23;;;;;;;6.63;5.97;;;4.60;99.90;;;;;;6178667;23;20155;-86
2021/10/14 06:31:48;;;;;;;5.57;5.07;;;4.60;99.90;;;;;;6178062;23;20469;-87
2021/10/14 06:34:14;;;;;;;6.30;5.70;;;4.60;99.90;;;;;;6177576;23;20164;-87
2021/10/14 06:36:40;;;;;;;5.80;5.23;;;4.70;99.90;;;;;;6179544;23;20644;-87
2021/10/14 06:39:05;;;;;;;6.40;5.43;;;4.80;99.90;;;;;;6179241;23;20168;-87
2021/10/14 06:41:31;;;;;;;5.40;4.90;;;4.80;99.90;;;;;;6178391;23;20166;-87
2021/10/14 06:43:56;;;;;;;5.70;5.10;;;4.80;99.90;;;;;;6179703;23;20169;-87
2021/10/14 06:46:22;;;;;;;5.50;4.50;;;4.80;99.90;;;;;;6180313;23;20235;-87
2021/10/14 06:51:36;;;;;;;5.90;5.23;;;4.70;99.90;;;;;;6203465;23;20192;-86
2021/10/14 06:54:05;;;;;;;8.03;5.97;;;4.70;99.90;;;;;;6179410;23;20749;-88
2021/10/14 06:56:35;;;;;;;6.80;6.13;;;4.80;99.90;;;;;;6179569;23;20399;-88
2021/10/14 06:59:06;;;;;;;6.67;6.07;;;4.90;99.90;;;;;;6201362;23;20468;-88
2021/10/14 07:01:33;;;;;;;6.80;6.10;;;4.90;99.90;;;;;;6178863;23;20499;-89
2021/10/14 07:03:58;;;;;;;8.03;7.23;;;4.90;99.90;;;;;;6179480;23;20727;-87
2021/10/14 07:06:24;;;;;;;10.00;6.37;;;4.90;99.90;;;;;;6200765;23;20414;-88
2021/10/14 07:08:50;;;;;;;6.50;5.80;;;5.00;99.90;;;;;;6179439;23;20163;-89
2021/10/14 07:11:15;;;;;;;6.17;5.57;;;5.00;99.90;;;;;;6179698;23;20213;-89
2021/10/14 07:13:44;;;;;;;6.57;6.00;;;5.10;99.90;;;;;;6180297;23;20151;-88
2021/10/14 07:16:11;;;;;;;7.33;5.80;;;5.30;99.90;;;;;;6179135;23;20194;-88
2021/10/14 07:18:38;;;;;;;8.77;5.90;;;5.30;99.90;;;;;;6180170;23;20450;-88
2021/10/14 07:21:03;;;;;;;6.30;5.00;;;5.40;99.90;;;;;;6180115;23;20399;-87
2021/10/14 07:23:29;;;;;;;5.80;5.30;;;5.40;99.90;;;;;;6190411;23;20399;-87
2021/10/14 07:25:55;;;;;;;6.13;5.40;;;5.40;99.90;;;;;;6192270;23;20694;-85
2021/10/14 07:28:22;;;;;;;7.83;5.03;;;5.40;99.90;;;;;;6179756;23;20171;-87
2021/10/14 07:30:48;;;;;;;6.17;5.60;;;5.40;99.90;;;;;;6179944;23;20434;-87
2021/10/14 07:33:16;;;;;;;5.40;4.90;;;5.60;99.90;;;;;;6179822;23;20481;-86
2021/10/14 07:35:42;;;;;;;7.47;6.77;;;5.70;99.90;;;;;;6179028;23;20396;-87
2021/10/14 07:38:10;;;;;;;8.63;7.23;;;5.80;99.90;;;;;;6179954;23;20768;-88
2021/10/14 07:40:39;;;;;;;10.93;8.37;;;5.90;99.90;;;;;;6179972;23;20592;-90
2021/10/14 07:43:05;;;;;;;10.87;7.67;;;6.10;99.90;;;;;;6179576;23;20393;-86
2021/10/14 07:45:30;;;;;;;8.77;7.40;;;6.20;99.90;;;;;;6179677;23;20394;-86
2021/10/14 07:47:56;;;;;;;5.60;5.00;;;6.40;99.90;;;;;;6178806;23;20445;-88
2021/10/14 07:50:22;;;;;;;5.17;4.77;;;6.40;99.90;;;;;;6179391;23;20889;-87
2021/10/14 07:52:48;;;;;;;100.00;72.67;;;6.50;99.90;;;;;;6179489;23;20199;-89
2021/10/14 07:55:13;;;;;;;44.37;34.23;;;6.60;99.90;;;;;;6179228;23;20571;-89
2021/10/14 07:57:39;;;;;;;7.67;4.87;;;6.70;99.90;;;;;;6181564;23;20198;-88
2021/10/14 08:00:15;;;;;;;5.90;4.30;;;6.90;99.90;;;;;;6180377;23;20171;-90
2021/10/14 08:02:41;;;;;;;5.97;5.37;;;7.00;99.90;;;;;;6178024;23;20513;-88
2021/10/14 08:05:07;;;;;;;6.57;4.73;;;7.00;99.90;;;;;;6179278;23;20402;-88
2021/10/14 08:07:32;;;;;;;4.70;4.30;;;7.10;99.90;;;;;;6180418;23;20210;-88
2021/10/14 08:10:04;;;;;;;6.00;5.50;;;7.00;99.90;;;;;;6178832;23;20889;-88
2021/10/14 08:12:30;;;;;;;5.83;5.07;;;6.90;99.90;;;;;;6179816;23;20173;-91
2021/10/14 08:15:00;;;;;;;5.43;4.93;;;6.80;99.90;;;;;;6180136;23;20390;-90
2021/10/14 08:17:26;;;;;;;5.10;4.70;;;6.90;99.90;;;;;;6180862;23;20441;-88
2021/10/14 08:19:51;;;;;;;5.23;4.77;;;7.00;99.90;;;;;;6178753;23;20444;-87
2021/10/14 08:22:17;;;;;;;5.23;4.73;;;7.10;99.90;;;;;;6182455;23;20187;-87
2021/10/14 08:24:43;;;;;;;5.10;4.60;;;7.30;99.90;;;;;;6181029;23;20604;-88
2021/10/14 08:27:08;;;;;;;4.80;4.40;;;7.30;99.90;;;;;;6181757;23;20543;-88
2021/10/14 08:29:34;;;;;;;5.17;4.77;;;7.50;99.90;;;;;;6181855;23;20182;-88
2021/10/14 08:32:02;;;;;;;5.33;4.87;;;7.70;99.90;;;;;;6180350;23;20172;-88
2021/10/14 08:34:28;;;;;;;5.10;4.53;;;7.90;99.90;;;;;;6179768;23;20163;-87
2021/10/14 08:36:57;;;;;;;4.47;4.07;;;8.30;99.90;;;;;;6181463;23;20722;-86
2021/10/14 08:39:23;;;;;;;4.97;4.47;;;8.60;99.90;;;;;;6181474;23;20479;-88
2021/10/14 08:41:51;;;;;;;5.33;4.83;;;8.70;99.90;;;;;;6180067;23;20392;-87
2021/10/14 08:44:26;;;;;;;4.87;4.47;;;8.60;99.90;;;;;;6207492;23;20399;-87
2021/10/14 08:46:56;;;;;;;5.03;4.53;;;8.60;99.90;;;;;;6174641;23;20386;-88
2021/10/14 08:49:23;;;;;;;5.43;4.93;;;8.70;99.90;;;;;;6180229;23;20773;-88
2021/10/14 08:51:50;;;;;;;5.53;5.03;;;9.10;99.90;;;;;;6181201;23;20387;-88
2021/10/14 08:54:16;;;;;;;5.30;4.80;;;9.50;99.90;;;;;;6192516;23;20422;-90
2021/10/14 08:56:44;;;;;;;4.53;4.10;;;9.60;99.90;;;;;;6183144;23;20464;-88
2021/10/14 08:59:24;;;;;;;6.30;4.57;;;9.70;99.90;;;;;;6179306;23;20395;-91
2021/10/14 09:02:18;;;;;;;5.60;5.00;;;9.70;99.90;;;;;;6181094;23;20903;-90
2021/10/14 09:04:53;;;;;;;4.40;3.90;;;9.40;99.90;;;;;;6179187;23;20521;-88
2021/10/14 09:07:20;;;;;;;4.90;4.50;;;9.50;99.90;;;;;;6178340;23;20779;-88
2021/10/14 09:09:47;;;;;;;7.37;4.43;;;9.60;99.90;;;;;;6178990;23;20390;-89
2021/10/14 09:12:14;;;;;;;5.37;4.30;;;9.80;99.90;;;;;;6179732;23;20427;-88
2021/10/14 09:14:59;;;;;;;5.23;4.53;;;10.00;99.90;;;;;;6179322;23;20391;-85
2021/10/14 09:17:50;;;;;;;8.63;4.63;;;10.20;99.90;;;;;;6178774;23;20506;-89
2021/10/14 09:20:37;;;;;;;4.40;3.70;;;10.60;99.90;;;;;;6175720;23;20470;-87
2021/10/14 09:23:21;;;;;;;5.80;4.77;;;10.60;99.90;;;;;;6180643;23;20437;-86
2021/10/14 09:25:49;;;;;;;6.53;4.20;;;10.90;99.90;;;;;;6180604;23;20454;-88
2021/10/14 09:28:28;;;;;;;3.80;3.50;;;11.20;99.90;;;;;;6181116;23;20395;-88
2021/10/14 09:31:05;;;;;;;4.07;3.67;;;11.30;99.90;;;;;;6180753;23;20448;-88
2021/10/14 09:33:31;;;;;;;4.63;3.87;;;11.40;99.90;;;;;;6178759;23;20399;-88
2021/10/14 09:36:13;;;;;;;5.43;4.07;;;11.60;99.90;;;;;;6180630;23;20422;-87
2021/10/14 09:38:40;;;;;;;4.33;3.93;;;11.60;99.90;;;;;;6189101;23;20206;-88
2021/10/14 09:41:09;;;;;;;6.07;3.90;;;11.70;99.90;;;;;;6179655;23;20789;-88
2021/10/14 09:43:35;;;;;;;3.90;3.40;;;12.10;99.90;;;;;;6179849;23;20410;-89
2021/10/14 09:46:01;;;;;;;4.27;3.50;;;12.10;99.90;;;;;;6179939;23;20394;-87
2021/10/14 09:48:27;;;;;;;5.53;3.10;;;12.20;99.90;;;;;;6180854;23;20453;-88
2021/10/14 09:50:53;;;;;;;6.17;3.37;;;12.00;99.90;;;;;;6180263;23;20729;-88
2021/10/14 09:53:26;;;;;;;3.77;3.40;;;12.20;99.90;;;;;;6178279;23;20190;-88
2021/10/14 09:55:53;;;;;;;3.60;2.80;;;12.50;99.90;;;;;;6180387;23;21039;-88
2021/10/14 09:58:20;;;;;;;3.80;3.40;;;12.80;99.90;;;;;;6181010;23;20449;-89
2021/10/14 10:00:46;;;;;;;4.00;2.97;;;12.90;99.90;;;;;;6181340;23;20402;-89
2021/10/14 10:03:19;;;;;;;3.37;3.00;;;13.00;99.90;;;;;;6206893;23;20437;-90
2021/10/14 10:05:47;;;;;;;4.60;2.93;;;13.20;99.40;;;;;;6180267;23;20489;-88
2021/10/14 10:08:34;;;;;;;4.20;3.33;;;13.20;99.10;;;;;;6181405;23;20406;-90
2021/10/14 10:11:04;;;;;;;3.80;3.17;;;13.30;98.90;;;;;;6180623;23;20907;-86
2021/10/14 10:13:33;;;;;;;4.43;3.27;;;13.50;98.90;;;;;;6180684;23;20732;-89
2021/10/14 10:16:23;;;;;;;7.50;2.80;;;13.70;98.00;;;;;;6177499;23;20391;-88
2021/10/14 10:18:50;;;;;;;3.67;3.00;;;13.70;97.70;;;;;;6176262;23;20444;-88
2021/10/14 10:21:45;;;;;;;3.30;3.00;;;13.90;97.50;;;;;;6180764;23;20391;-87
2021/10/14 10:24:20;;;;;;;3.80;2.73;;;13.90;96.50;;;;;;6181403;23;20421;-87
2021/10/14 10:26:46;;;;;;;3.20;2.10;;;13.70;96.80;;;;;;6181755;23;20394;-87
2021/10/14 10:29:14;;;;;;;5.20;2.90;;;14.30;97.20;;;;;;6179952;23;20421;-86
2021/10/14 10:31:53;;;;;;;2.50;2.10;;;14.60;96.10;;;;;;6180002;23;20713;-87
2021/10/14 10:34:58;;;;;;;3.20;2.37;;;14.20;96.70;;;;;;6181422;23;20410;-87
2021/10/14 10:37:33;;;;;;;2.60;2.23;;;14.20;95.70;;;;;;6181842;23;20442;-87
2021/10/14 10:40:09;;;;;;;3.23;2.27;;;14.30;96.00;;;;;;6181615;23;20393;-86
2021/10/14 10:42:38;;;;;;;3.10;2.80;;;14.40;95.70;;;;;;6181070;23;20407;-86
2021/10/14 10:45:25;;;;;;;3.60;2.30;;;14.30;94.50;;;;;;6179911;23;20754;-88
2021/10/14 10:47:54;;;;;;;4.20;2.67;;;14.30;94.00;;;;;;6181813;23;20413;-86
2021/10/14 10:50:29;;;;;;;2.50;2.30;;;14.30;93.80;;;;;;6181726;23;20890;-87
2021/10/14 10:53:13;;;;;;;3.90;2.03;;;14.40;94.10;;;;;;6207201;23;20461;-88
2021/10/14 10:55:40;;;;;;;3.10;2.20;;;14.60;93.80;;;;;;6180274;23;20612;-89
2021/10/14 10:58:09;;;;;;;3.53;2.50;;;14.80;93.20;;;;;;6179516;23;20869;-88
2021/10/14 11:00:37;;;;;;;3.07;2.30;;;15.10;93.10;;;;;;6180454;23;20395;-88
2021/10/14 11:03:13;;;;;;;2.90;2.30;;;15.30;92.30;;;;;;6181202;23;20851;-90
2021/10/14 11:05:56;;;;;;;5.37;2.30;;;15.30;93.20;;;;;;6182452;23;20418;-92
2021/10/14 11:08:31;;;;;;;3.60;2.70;;;15.70;92.20;;;;;;6180252;23;20506;-87
2021/10/14 11:11:12;;;;;;;26.60;23.83;;;15.90;91.30;;;;;;6180497;23;20723;-88
2021/10/14 11:13:41;;;;;;;4.80;3.97;;;16.10;91.30;;;;;;6180214;23;20737;-87
2021/10/14 11:16:08;;;;;;;2.77;2.57;;;15.80;90.70;;;;;;6179913;23;20394;-86
2021/10/14 11:18:38;;;;;;;2.33;2.13;;;16.00;91.20;;;;;;6181068;23;20439;-87
2021/10/14 11:21:12;;;;;;;2.30;2.10;;;15.90;90.60;;;;;;6179224;23;20395;-88
2021/10/14 11:23:41;;;;;;;3.13;2.20;;;16.10;90.90;;;;;;6179501;23;20394;-87
2021/10/14 11:26:17;;;;;;;2.73;2.23;;;16.30;90.30;;;;;;6180674;23;20403;-87
2021/10/14 11:28:51;;;;;;;3.03;2.37;;;16.30;90.40;;;;;;6179836;23;20414;-87
2021/10/14 11:31:24;;;;;;;2.97;2.17;;;16.60;90.70;;;;;;6180686;23;20409;-87
2021/10/14 11:33:50;;;;;;;3.10;2.40;;;16.70;89.60;;;;;;6179798;23;20445;-87
2021/10/14 11:36:20;;;;;;;2.67;2.20;;;16.80;88.70;;;;;;6180329;23;20405;-87
2021/10/14 11:38:56;;;;;;;2.43;2.10;;;17.00;87.40;;;;;;6180457;23;20442;-87
2021/10/14 11:41:22;;;;;;;2.67;2.23;;;16.10;88.10;;;;;;6180979;23;20395;-87
2021/10/14 11:44:00;;;;;;;3.20;2.20;;;16.20;90.10;;;;;;6180031;23;20393;-86
2021/10/14 11:46:28;;;;;;;3.57;2.37;;;16.80;88.20;;;;;;6180529;23;20477;-86
2021/10/14 11:49:03;;;;;;;2.47;2.20;;;16.70;88.50;;;;;;6181148;23;20402;-88
2021/10/14 11:51:32;;;;;;;2.30;2.20;;;16.40;88.10;;;;;;6181056;23;20390;-88
2021/10/14 11:54:06;;;;;;;1.90;1.80;;;16.50;88.60;;;;;;6194813;23;20815;-87
2021/10/14 11:56:32;;;;;;;2.50;2.30;;;16.30;88.40;;;;;;6185383;23;20394;-87
2021/10/14 11:59:03;;;;;;;3.10;2.13;;;16.20;88.80;;;;;;6208861;23;20589;-87
2021/10/14 12:01:30;;;;;;;2.73;2.23;;;16.10;90.40;;;;;;6182901;23;20398;-88
2021/10/14 12:03:57;;;;;;;3.07;2.50;;;16.20;89.40;;;;;;6181473;23;20414;-87
2021/10/14 12:06:23;;;;;;;2.57;2.20;;;16.50;88.70;;;;;;6181477;23;20418;-88
2021/10/14 12:08:49;;;;;;;3.30;2.43;;;16.00;89.70;;;;;;6182581;23;20390;-88
2021/10/14 12:11:20;;;;;;;3.83;2.87;;;15.10;90.10;;;;;;6182559;23;20395;-87
2021/10/14 12:13:58;;;;;;;3.17;2.30;;;14.40;91.00;;;;;;6182294;23;20445;-86
2021/10/14 12:16:24;;;;;;;3.43;2.67;;;14.10;91.80;;;;;;6182707;23;20536;-86
2021/10/14 12:18:50;;;;;;;2.60;2.40;;;14.00;92.10;;;;;;6181580;23;20469;-84
2021/10/14 12:21:34;;;;;;;3.10;2.70;;;13.70;92.00;;;;;;6180536;23;20413;-85
2021/10/14 12:24:09;;;;;;;3.70;2.90;;;13.70;92.20;;;;;;6181907;23;20741;-86
2021/10/14 12:26:41;;;;;;;4.27;2.67;;;13.90;92.30;;;;;;6181570;23;20727;-88
2021/10/14 12:29:22;;;;;;;2.23;2.03;;;14.10;92.20;;;;;;6182827;23;20402;-85
2021/10/14 12:31:49;;;;;;;2.67;2.43;;;14.10;91.90;;;;;;6181594;23;20402;-87
2021/10/14 12:34:15;;;;;;;3.30;3.00;;;14.20;92.10;;;;;;6180885;23;20468;-84
2021/10/14 12:36:42;;;;;;;3.90;2.87;;;14.40;92.10;;;;;;6181172;23;20399;-86
2021/10/14 12:39:18;;;;;;;3.00;2.40;;;14.90;91.50;;;;;;6181376;23;20279;-86
2021/10/14 12:41:54;;;;;;;3.50;2.47;;;15.40;91.40;;;;;;6182666;23;20395;-88
2021/10/14 12:44:25;;;;;;;2.43;2.30;;;15.90;90.80;;;;;;6183154;23;20403;-88
2021/10/14 12:51:48;;;;;;;2.97;1.90;;;17.00;88.30;;;;;;6208586;23;20426;-87
2021/10/14 12:54:27;;;;;;;3.23;2.20;;;17.10;86.90;;;;;;6205241;23;20904;-88
2021/10/14 12:57:04;;;;;;;3.50;2.50;;;17.00;86.40;;;;;;6180193;23;20430;-87
2021/10/14 12:59:30;;;;;;;3.10;2.20;;;16.40;89.30;;;;;;6181146;23;20421;-88
2021/10/14 13:01:58;;;;;;;3.57;2.67;;;16.20;90.10;;;;;;6180151;23;20840;-88
2021/10/14 13:04:25;;;;;;;2.50;2.30;;;16.20;90.10;;;;;;6179817;23;20754;-88
2021/10/14 13:06:51;;;;;;;3.93;2.40;;;16.40;90.40;;;;;;6180160;23;20399;-87